DK-0010 weather

Århus Glider Field
Århus, Central Jutland, Denmark

Public forecast

Using degrees Celsius for public forecast. Weather courtesy of forecast.io.

Closest aviation weather report (METAR) to Århus Glider Field

Closest report is Aarhus Airport, 19.5 nm (36.1 km) ENE. Retrieved 2019/10/14 14:20 UTC (0 seconds ago):

EKAH 141420Z AUTO 32002KT 9999NDV SCT150/// 12/07 Q1015

Closest aviation forecast (TAF) to Århus Glider Field

Closest forecast is Aarhus Airport, 19.5 nm (36.1 km) ENE. Retrieved 2019/10/14 12:30 UTC (2 hours ago):

TAF TAF EKAH 141059Z 1412/1512 30012KT 9999 BKN025 BECMG 1412/1415 VRB02KT BECMG 1503/1505 11015KT 4000 BR BKN008 TEMPO 1505/1512 6000 NSW BKN020